createdAt,value
2022-12-28T00:01:33.055Z,-1.03
2022-12-28T00:04:05.161Z,-1.08
2022-12-28T00:06:34.342Z,-1.11
2022-12-28T00:09:02.612Z,-1.15
2022-12-28T00:11:31.459Z,-1.14
2022-12-28T00:14:02.016Z,-1.15
2022-12-28T00:16:37.699Z,-1.18
2022-12-28T00:19:15.173Z,-1.20
2022-12-28T00:21:45.016Z,-1.22
2022-12-28T00:24:20.924Z,-1.28
2022-12-28T00:26:50.382Z,-1.29
2022-12-28T00:29:18.841Z,-1.33
2022-12-28T00:31:47.043Z,-1.36
2022-12-28T00:34:15.291Z,-1.37
2022-12-28T00:37:09.756Z,-1.41
2022-12-28T00:39:12.767Z,-1.45
2022-12-28T00:41:40.409Z,-1.46
2022-12-28T00:44:09.510Z,-1.50
2022-12-28T00:46:37.481Z,-1.55
2022-12-28T00:49:06.655Z,-1.57
2022-12-28T00:51:34.443Z,-1.59
2022-12-28T00:54:02.369Z,-1.58
2022-12-28T00:56:30.279Z,-1.58
2022-12-28T00:58:59.764Z,-1.59
2022-12-28T01:01:28.971Z,-1.63
2022-12-28T01:04:01.757Z,-1.66
2022-12-28T01:06:29.910Z,-1.68
2022-12-28T01:08:58.356Z,-1.90
2022-12-28T01:11:30.206Z,-1.74
2022-12-28T01:14:01.016Z,-1.75
2022-12-28T01:16:32.793Z,-1.76
2022-12-28T01:19:04.900Z,-1.78
2022-12-28T01:21:34.239Z,-1.79
2022-12-28T01:24:04.334Z,-1.83
2022-12-28T01:26:34.548Z,-1.87
2022-12-28T01:29:03.545Z,-1.91
2022-12-28T01:31:33.568Z,-1.96
2022-12-28T01:34:02.645Z,-1.97
2022-12-28T01:36:34.325Z,-1.97
2022-12-28T01:39:05.882Z,-1.97
2022-12-28T01:41:40.163Z,-1.98
2022-12-28T01:44:13.345Z,-1.97
2022-12-28T01:46:50.401Z,-2.00
2022-12-28T01:49:26.681Z,-2.03
2022-12-28T01:52:24.160Z,-2.04
2022-12-28T01:55:00.107Z,-2.06
2022-12-28T01:57:33.439Z,-2.10
2022-12-28T02:00:06.155Z,-2.11
2022-12-28T02:02:36.414Z,-2.11
2022-12-28T02:05:05.763Z,-2.10
2022-12-28T02:07:53.144Z,-2.09
2022-12-28T02:10:43.733Z,-2.09
2022-12-28T02:12:53.828Z,-2.08
2022-12-28T02:15:23.409Z,-2.07
2022-12-28T02:17:51.489Z,-2.07
2022-12-28T02:20:19.648Z,-2.11
2022-12-28T02:23:07.827Z,-2.10
2022-12-28T02:26:02.428Z,-2.12
2022-12-28T02:29:15.127Z,-2.18
2022-12-28T02:31:51.153Z,-2.25
2022-12-28T02:34:26.780Z,-2.30
2022-12-28T02:37:01.508Z,-2.37
2022-12-28T02:39:37.734Z,-2.39
2022-12-28T02:42:09.242Z,-2.42
2022-12-28T02:44:57.220Z,-2.44
2022-12-28T02:47:43.347Z,-2.48
2022-12-28T02:50:15.337Z,-2.48
2022-12-28T02:52:54.385Z,-2.49
2022-12-28T02:56:02.787Z,-2.48
2022-12-28T02:58:52.169Z,-2.49
2022-12-28T03:01:45.050Z,-2.52
2022-12-28T03:04:53.435Z,-2.54
2022-12-28T03:07:47.974Z,-2.57
2022-12-28T03:10:32.917Z,-2.65
2022-12-28T03:13:10.967Z,-2.72
2022-12-28T03:15:38.967Z,-2.78
2022-12-28T03:18:34.690Z,-2.83
2022-12-28T03:21:25.094Z,-2.86
2022-12-28T03:24:13.429Z,-2.90
2022-12-28T03:27:05.297Z,-2.91
2022-12-28T03:29:58.445Z,-2.92
2022-12-28T03:32:26.358Z,-2.94
2022-12-28T03:34:55.697Z,-2.94
2022-12-28T03:37:38.046Z,-2.96
2022-12-28T03:40:34.769Z,-2.96
2022-12-28T03:43:32.598Z,-2.97
2022-12-28T03:46:04.877Z,-2.95
2022-12-28T03:48:36.868Z,-2.95
2022-12-28T03:51:05.539Z,-2.97
2022-12-28T03:53:43.283Z,-2.96
2022-12-28T03:56:17.939Z,-2.94
2022-12-28T03:58:48.635Z,-2.93
2022-12-28T04:01:17.444Z,-2.95
2022-12-28T04:03:45.912Z,-2.94
2022-12-28T04:06:17.262Z,-2.94
2022-12-28T04:08:46.077Z,-2.93
2022-12-28T04:11:14.431Z,-2.93
2022-12-28T04:13:43.914Z,-2.93
2022-12-28T04:16:14.466Z,-2.99
2022-12-28T04:18:43.441Z,-2.96
2022-12-28T04:21:16.067Z,-2.96
2022-12-28T04:23:44.993Z,-2.97
2022-12-28T04:26:20.889Z,-2.96
2022-12-28T04:28:50.573Z,-2.98
2022-12-28T04:31:21.331Z,-2.97
2022-12-28T04:33:51.168Z,-2.98
2022-12-28T04:36:19.292Z,-2.98
2022-12-28T04:38:47.085Z,-2.95
2022-12-28T04:41:14.584Z,-2.95
2022-12-28T04:43:42.379Z,-2.93
2022-12-28T04:46:17.503Z,-2.91
2022-12-28T04:48:45.032Z,-2.90
2022-12-28T04:51:25.937Z,-2.87
2022-12-28T04:53:56.124Z,-2.86
2022-12-28T04:56:25.958Z,-2.83
2022-12-28T04:59:00.121Z,-2.79
2022-12-28T05:01:28.289Z,-2.78
2022-12-28T05:03:59.276Z,-2.75
2022-12-28T05:06:27.223Z,-2.70
2022-12-28T05:08:56.824Z,-2.68
2022-12-28T05:11:28.412Z,-2.64
2022-12-28T05:13:57.283Z,-2.61
2022-12-28T05:16:28.021Z,-2.59
2022-12-28T05:18:57.476Z,-2.60
2022-12-28T05:21:27.846Z,-2.59
2022-12-28T05:23:56.861Z,-2.58
2022-12-28T05:26:28.374Z,-2.53
2022-12-28T05:28:58.116Z,-2.50
2022-12-28T05:31:26.896Z,-2.48
2022-12-28T05:33:55.108Z,-2.45
2022-12-28T05:36:26.238Z,-2.44
2022-12-28T05:38:55.612Z,-2.42
2022-12-28T05:41:27.452Z,-2.42
2022-12-28T05:43:58.099Z,-2.39
2022-12-28T05:46:30.268Z,-2.37
2022-12-28T05:49:01.400Z,-2.38
2022-12-28T05:51:31.753Z,-2.42
2022-12-28T05:54:03.195Z,-2.37
2022-12-28T05:56:32.329Z,-2.38
2022-12-28T05:59:03.481Z,-2.36
2022-12-28T06:01:35.594Z,-2.37
2022-12-28T06:04:08.121Z,-2.40
2022-12-28T06:06:36.075Z,-2.40
2022-12-28T06:09:04.061Z,-2.41
2022-12-28T06:11:32.441Z,-2.41
2022-12-28T06:14:02.870Z,-2.38
2022-12-28T06:16:33.998Z,-2.38
2022-12-28T06:19:16.271Z,-2.42
2022-12-28T06:21:44.158Z,-2.37
2022-12-28T06:24:13.509Z,-2.27
2022-12-28T06:26:41.749Z,-2.13
2022-12-28T06:29:10.078Z,-1.82
2022-12-28T06:31:42.801Z,-1.47
2022-12-28T06:34:10.403Z,-1.14
2022-12-28T06:36:42.231Z,-0.79
2022-12-28T06:39:13.630Z,-0.40
2022-12-28T06:41:42.432Z,-0.14
2022-12-28T06:44:13.167Z,0.10
2022-12-28T06:46:41.640Z,0.43
2022-12-28T06:49:11.304Z,0.76
2022-12-28T06:51:41.382Z,1.04
2022-12-28T06:54:10.251Z,1.27
2022-12-28T06:56:39.058Z,1.42
2022-12-28T06:59:07.115Z,1.49
2022-12-28T07:01:39.733Z,1.39
2022-12-28T07:04:09.627Z,1.41
2022-12-28T07:06:43.573Z,1.46
2022-12-28T07:09:14.806Z,1.49
2022-12-28T07:11:44.242Z,1.54
2022-12-28T07:14:15.473Z,1.57
2022-12-28T07:16:43.385Z,1.65
2022-12-28T07:19:11.459Z,1.71
2022-12-28T07:21:40.313Z,1.80
2022-12-28T07:24:11.097Z,1.84
2022-12-28T07:26:38.926Z,1.89
2022-12-28T07:29:08.444Z,1.93
2022-12-28T07:31:45.430Z,1.97
2022-12-28T07:34:10.453Z,1.99
2022-12-28T07:36:38.133Z,2.01
2022-12-28T07:39:06.118Z,1.95
2022-12-28T07:41:35.673Z,1.89
2022-12-28T07:44:05.343Z,1.87
2022-12-28T07:46:35.791Z,1.89
2022-12-28T07:49:04.271Z,1.88
2022-12-28T07:51:35.529Z,2.01
2022-12-28T07:54:05.238Z,2.20
2022-12-28T07:59:05.178Z,2.41
2022-12-28T08:01:35.725Z,2.41
2022-12-28T08:04:11.191Z,2.34
2022-12-28T08:06:41.794Z,2.25
2022-12-28T08:09:12.965Z,2.28
2022-12-28T08:11:44.269Z,2.41
2022-12-28T08:14:13.541Z,2.49
2022-12-28T08:16:44.060Z,2.57
2022-12-28T08:19:13.760Z,2.63
2022-12-28T08:21:44.916Z,2.69
2022-12-28T08:24:17.409Z,2.75
2022-12-28T08:26:47.788Z,2.83
2022-12-28T08:29:20.214Z,2.93
2022-12-28T08:31:49.980Z,3.02
2022-12-28T08:34:28.826Z,3.02
2022-12-28T08:36:58.276Z,3.04
2022-12-28T08:39:28.894Z,3.06
2022-12-28T08:41:58.080Z,3.10
2022-12-28T08:44:26.904Z,3.16
2022-12-28T08:46:58.224Z,3.19
2022-12-28T08:49:30.559Z,3.25
2022-12-28T08:52:00.776Z,3.29
2022-12-28T08:54:29.245Z,3.30
2022-12-28T08:56:57.464Z,3.30
2022-12-28T08:59:26.383Z,3.39
2022-12-28T09:01:54.321Z,3.50
2022-12-28T09:04:22.735Z,3.58
2022-12-28T09:06:50.988Z,3.69
2022-12-28T09:09:22.637Z,3.81
2022-12-28T09:11:50.635Z,3.86
2022-12-28T09:14:23.817Z,3.98
2022-12-28T09:16:48.420Z,4.10
2022-12-28T09:19:16.315Z,4.18
2022-12-28T09:21:47.940Z,4.27
2022-12-28T09:24:16.414Z,4.39
2022-12-28T09:26:44.494Z,4.51
2022-12-28T09:29:14.002Z,4.64
2022-12-28T09:31:44.025Z,4.73
2022-12-28T09:36:44.795Z,4.87
2022-12-28T09:39:20.191Z,4.95
2022-12-28T09:42:10.100Z,4.97
2022-12-28T09:45:00.056Z,4.93
2022-12-28T09:47:38.153Z,4.91
2022-12-28T09:50:22.336Z,4.86
2022-12-28T09:53:07.492Z,4.90
2022-12-28T09:55:38.118Z,5.05
2022-12-28T09:58:14.248Z,5.11
2022-12-28T10:00:49.302Z,5.25
2022-12-28T10:03:27.936Z,5.35
2022-12-28T10:05:57.599Z,5.21
2022-12-28T10:08:27.986Z,5.01
2022-12-28T10:11:00.126Z,4.89
2022-12-28T10:13:54.158Z,4.78
2022-12-28T10:16:13.935Z,4.84
2022-12-28T10:18:41.364Z,4.99
2022-12-28T10:21:09.798Z,5.11
2022-12-28T10:24:04.777Z,5.23
2022-12-28T10:26:16.312Z,5.36
2022-12-28T10:28:58.461Z,5.48
2022-12-28T10:31:38.719Z,5.54
2022-12-28T10:34:22.201Z,5.65
2022-12-28T10:36:52.530Z,5.74
2022-12-28T10:39:29.810Z,5.81
2022-12-28T10:42:03.010Z,5.88
2022-12-28T10:44:41.579Z,5.91
2022-12-28T10:47:18.329Z,5.91
2022-12-28T10:50:10.539Z,5.95
2022-12-28T10:52:22.577Z,6.02
2022-12-28T10:55:07.441Z,6.04
2022-12-28T10:57:29.771Z,6.13
2022-12-28T11:00:22.388Z,6.22
2022-12-28T11:02:50.306Z,6.25
2022-12-28T11:05:23.019Z,6.21
2022-12-28T11:08:04.185Z,6.21
2022-12-28T11:10:32.397Z,6.21
2022-12-28T11:13:01.493Z,6.23
2022-12-28T11:15:33.707Z,6.27
2022-12-28T11:18:16.872Z,6.19
2022-12-28T11:20:51.237Z,6.10
2022-12-28T11:23:25.681Z,6.09
2022-12-28T11:25:53.616Z,6.04
2022-12-28T11:28:22.905Z,5.89
2022-12-28T11:30:52.235Z,5.85
2022-12-28T11:33:42.859Z,5.85
2022-12-28T11:36:23.865Z,5.85
2022-12-28T11:38:54.622Z,5.83
2022-12-28T11:41:34.019Z,5.85
2022-12-28T11:44:05.560Z,5.82
2022-12-28T11:46:37.831Z,5.79
2022-12-28T11:49:27.598Z,5.78
2022-12-28T11:52:22.602Z,5.81
2022-12-28T11:54:55.069Z,5.84
2022-12-28T11:57:40.446Z,5.90
2022-12-28T12:00:23.817Z,5.92
2022-12-28T12:03:00.013Z,5.85
2022-12-28T12:05:43.187Z,5.90
2022-12-28T12:08:20.630Z,5.94
2022-12-28T12:10:51.881Z,5.93
2022-12-28T12:13:31.061Z,5.89
2022-12-28T12:16:07.211Z,5.84
2022-12-28T12:18:50.862Z,5.68
2022-12-28T12:21:33.563Z,5.56
2022-12-28T12:24:29.463Z,5.49
2022-12-28T12:27:17.286Z,5.40
2022-12-28T12:30:05.311Z,5.25
2022-12-28T12:32:44.635Z,5.16
2022-12-28T12:35:23.974Z,5.12
2022-12-28T12:38:05.352Z,5.10
2022-12-28T12:41:14.967Z,5.12
2022-12-28T12:43:50.092Z,5.10
2022-12-28T12:46:41.249Z,5.09
2022-12-28T12:49:39.679Z,5.07
2022-12-28T12:52:46.731Z,5.09
2022-12-28T12:55:30.175Z,5.11
2022-12-28T12:58:28.099Z,5.06
2022-12-28T13:01:27.562Z,5.04
2022-12-28T13:04:02.064Z,5.08
2022-12-28T13:06:37.352Z,5.14
2022-12-28T13:09:06.949Z,5.13
2022-12-28T13:11:39.316Z,4.99
2022-12-28T13:14:19.292Z,5.06
2022-12-28T13:16:51.109Z,5.02
2022-12-28T13:19:23.405Z,4.95
2022-12-28T13:21:52.396Z,4.90
2022-12-28T13:24:31.022Z,4.87
2022-12-28T13:27:00.366Z,4.86
2022-12-28T13:29:37.090Z,4.83
2022-12-28T13:32:05.478Z,4.81
2022-12-28T13:34:34.758Z,4.72
2022-12-28T13:37:15.738Z,4.65
2022-12-28T13:39:44.012Z,4.59
2022-12-28T13:42:18.818Z,4.53
2022-12-28T13:44:59.479Z,4.47
2022-12-28T13:47:49.516Z,4.39
2022-12-28T13:50:29.475Z,4.33
2022-12-28T13:53:08.365Z,4.22
2022-12-28T13:55:44.276Z,4.11
2022-12-28T13:58:19.853Z,3.99
2022-12-28T14:00:49.922Z,3.92
2022-12-28T14:03:19.099Z,3.85
2022-12-28T14:05:53.509Z,3.81
2022-12-28T14:08:22.537Z,3.76
2022-12-28T14:10:51.860Z,3.73
2022-12-28T14:13:20.452Z,3.69
2022-12-28T14:15:49.365Z,3.65
2022-12-28T14:18:18.417Z,3.60
2022-12-28T14:20:54.364Z,3.53
2022-12-28T14:23:30.878Z,3.49
2022-12-28T14:26:07.260Z,3.41
2022-12-28T14:28:43.522Z,3.32
2022-12-28T14:31:14.343Z,3.24
2022-12-28T14:33:50.356Z,3.17
2022-12-28T14:36:22.018Z,3.07
2022-12-28T14:39:01.149Z,2.99
2022-12-28T14:41:36.852Z,2.93
2022-12-28T14:44:09.456Z,2.82
2022-12-28T14:46:39.831Z,2.69
2022-12-28T14:49:31.917Z,2.55
2022-12-28T14:52:17.773Z,2.44
2022-12-28T14:54:50.739Z,2.33
2022-12-28T14:57:36.398Z,2.24
2022-12-28T15:00:09.186Z,2.15
2022-12-28T15:02:41.038Z,2.05
2022-12-28T15:05:40.108Z,1.95
2022-12-28T15:08:09.678Z,1.85
2022-12-28T15:10:58.058Z,1.74
2022-12-28T15:13:27.018Z,1.67
2022-12-28T15:16:00.851Z,1.56
2022-12-28T15:18:30.095Z,1.51
2022-12-28T15:20:57.871Z,1.46
2022-12-28T15:23:25.399Z,1.38
2022-12-28T15:25:53.455Z,1.31
2022-12-28T15:28:25.851Z,1.23
2022-12-28T15:30:53.805Z,1.13
2022-12-28T15:33:21.520Z,1.03
2022-12-28T15:35:49.311Z,0.95
2022-12-28T15:38:17.165Z,0.88
2022-12-28T15:40:46.742Z,0.83
2022-12-28T15:43:14.536Z,0.77
2022-12-28T15:45:42.117Z,0.71
2022-12-28T15:48:09.543Z,0.68
2022-12-28T15:50:37.047Z,0.63
2022-12-28T15:53:05.110Z,0.56
2022-12-28T15:55:33.391Z,0.53
2022-12-28T15:58:01.290Z,0.44
2022-12-28T16:00:29.123Z,0.38
2022-12-28T16:02:57.302Z,0.31
2022-12-28T16:05:25.392Z,0.21
2022-12-28T16:07:53.052Z,0.14
2022-12-28T16:10:21.722Z,0.08
2022-12-28T16:12:49.367Z,0.04
2022-12-28T16:15:19.414Z,-0.01
2022-12-28T16:17:56.867Z,-0.07
2022-12-28T16:20:17.333Z,-0.11
2022-12-28T16:22:47.461Z,-0.13
2022-12-28T16:25:18.092Z,-0.16
2022-12-28T16:27:45.904Z,-0.19
2022-12-28T16:30:14.214Z,-0.23
2022-12-28T16:32:43.328Z,-0.25
2022-12-28T16:35:11.324Z,-0.27
2022-12-28T16:37:39.596Z,-0.28
2022-12-28T16:40:09.271Z,-0.30
2022-12-28T16:42:36.942Z,-0.30
2022-12-28T16:45:05.406Z,-0.31
2022-12-28T16:47:33.289Z,-0.32
2022-12-28T16:50:01.045Z,-0.36
2022-12-28T16:52:29.236Z,-0.39
2022-12-28T16:54:57.527Z,-0.41
2022-12-28T16:57:26.034Z,-0.44
2022-12-28T16:59:53.657Z,-0.47
2022-12-28T17:02:23.772Z,-0.52
2022-12-28T17:04:51.563Z,-0.54
2022-12-28T17:07:18.924Z,-0.57
2022-12-28T17:09:50.301Z,-0.61
2022-12-28T17:12:19.635Z,-0.65
2022-12-28T17:14:49.638Z,-0.70
2022-12-28T17:17:17.763Z,-0.77
2022-12-28T17:19:45.937Z,-0.80
2022-12-28T17:22:13.942Z,-0.82
2022-12-28T17:24:42.271Z,-0.84
2022-12-28T17:27:17.204Z,-0.87
2022-12-28T17:29:40.248Z,-0.89
2022-12-28T17:32:08.565Z,-0.90
2022-12-28T17:34:38.223Z,-0.92
2022-12-28T17:37:06.141Z,-0.91
2022-12-28T17:39:40.021Z,-0.92
2022-12-28T17:42:06.187Z,-0.92
2022-12-28T17:44:34.982Z,-0.93
2022-12-28T17:47:02.629Z,-0.96
2022-12-28T17:49:30.591Z,-0.97
2022-12-28T17:51:58.523Z,-0.98
2022-12-28T17:54:26.291Z,-0.99
2022-12-28T17:56:53.898Z,-1.00
2022-12-28T17:59:22.896Z,-1.03
2022-12-28T18:01:51.526Z,-1.07
2022-12-28T18:04:19.394Z,-1.10
2022-12-28T18:06:47.400Z,-1.13
2022-12-28T18:09:15.241Z,-1.14
2022-12-28T18:11:44.017Z,-1.14
2022-12-28T18:14:12.581Z,-1.17
2022-12-28T18:16:40.145Z,-1.20
2022-12-28T18:19:07.884Z,-1.22
2022-12-28T18:21:35.735Z,-1.24
2022-12-28T18:24:03.896Z,-1.26
2022-12-28T18:26:50.592Z,-1.27
2022-12-28T18:29:22.073Z,-1.27
2022-12-28T18:31:54.211Z,-1.29
2022-12-28T18:34:21.824Z,-1.30
2022-12-28T18:36:49.892Z,-1.29
2022-12-28T18:39:17.768Z,-1.29
2022-12-28T18:41:45.718Z,-1.29
2022-12-28T18:44:13.362Z,-1.32
2022-12-28T18:46:41.025Z,-1.36
2022-12-28T18:49:09.030Z,-1.36
2022-12-28T18:51:36.892Z,-1.36
2022-12-28T18:54:05.043Z,-1.40
2022-12-28T18:56:32.991Z,-1.41
2022-12-28T18:59:00.786Z,-1.43
2022-12-28T19:04:00.118Z,-1.49
2022-12-28T19:06:28.943Z,-1.54
2022-12-28T19:09:00.477Z,-1.58
2022-12-28T19:11:28.913Z,-1.61
2022-12-28T19:13:57.267Z,-1.64
2022-12-28T19:16:32.026Z,-1.66
2022-12-28T19:19:05.200Z,-1.67
2022-12-28T19:21:40.075Z,-1.67
2022-12-28T19:24:15.310Z,-1.70
2022-12-28T19:26:45.469Z,-1.73
2022-12-28T19:29:18.330Z,-1.76
2022-12-28T19:31:45.841Z,-1.78
2022-12-28T19:34:16.050Z,-1.82
2022-12-28T19:36:43.931Z,-1.82
2022-12-28T19:39:12.054Z,-1.83
2022-12-28T19:41:40.451Z,-1.84
2022-12-28T19:44:08.316Z,-1.86
2022-12-28T19:46:42.659Z,-1.89
2022-12-28T19:49:10.527Z,-1.93
2022-12-28T19:51:38.704Z,-1.95
2022-12-28T19:54:07.391Z,-1.96
2022-12-28T19:56:35.355Z,-1.96
2022-12-28T19:59:06.900Z,-1.97
2022-12-28T20:01:35.824Z,-1.99
2022-12-28T20:04:11.982Z,-1.99
2022-12-28T20:06:34.967Z,-1.99
2022-12-28T20:09:02.902Z,-2.01
2022-12-28T20:11:30.796Z,-2.02
2022-12-28T20:14:02.551Z,-2.02
2022-12-28T20:16:32.969Z,-2.03
2022-12-28T20:19:01.268Z,-2.06
2022-12-28T20:21:29.067Z,-2.09
2022-12-28T20:23:56.852Z,-2.10
2022-12-28T20:26:26.537Z,-2.11
2022-12-28T20:28:56.381Z,-2.12
2022-12-28T20:31:25.514Z,-2.13
2022-12-28T20:33:53.705Z,-2.14
2022-12-28T20:36:27.945Z,-2.15
2022-12-28T20:38:56.587Z,-2.17
2022-12-28T20:41:48.929Z,-2.18
2022-12-28T20:44:25.080Z,-2.21
2022-12-28T20:46:54.788Z,-2.25
2022-12-28T20:49:29.120Z,-2.32
2022-12-28T20:51:57.694Z,-2.36
2022-12-28T20:54:26.156Z,-2.36
2022-12-28T20:56:55.910Z,-2.37
2022-12-28T20:59:25.344Z,-2.38
2022-12-28T21:01:53.763Z,-2.40
2022-12-28T21:04:25.348Z,-2.41
2022-12-28T21:06:54.422Z,-2.41
2022-12-28T21:09:22.642Z,-2.42
2022-12-28T21:11:50.543Z,-2.42
2022-12-28T21:14:18.213Z,-2.40
2022-12-28T21:16:46.453Z,-2.40
2022-12-28T21:19:14.456Z,-2.40
2022-12-28T21:21:42.137Z,-2.40
2022-12-28T21:24:10.064Z,-2.41
2022-12-28T21:26:38.702Z,-2.41
2022-12-28T21:29:06.530Z,-2.41
2022-12-28T21:31:36.178Z,-2.42
2022-12-28T21:34:03.870Z,-2.43
2022-12-28T21:36:31.648Z,-2.44
2022-12-28T21:39:00.788Z,-2.43
2022-12-28T21:41:46.706Z,-2.43
2022-12-28T21:44:22.084Z,-2.47
2022-12-28T21:46:53.509Z,-2.49
2022-12-28T21:49:21.376Z,-2.51
2022-12-28T21:51:49.872Z,-2.53
2022-12-28T21:54:21.083Z,-2.54
2022-12-28T21:56:53.548Z,-2.58
2022-12-28T21:59:25.020Z,-2.59
2022-12-28T22:02:13.647Z,-2.61
2022-12-28T22:05:03.687Z,-2.61
2022-12-28T22:07:34.344Z,-2.61
2022-12-28T22:10:20.482Z,-2.60
2022-12-28T22:12:48.327Z,-2.59
2022-12-28T22:15:38.371Z,-2.60
2022-12-28T22:18:24.694Z,-2.61
2022-12-28T22:20:41.114Z,-2.64
2022-12-28T22:23:09.619Z,-2.67
2022-12-28T22:25:37.421Z,-2.74
2022-12-28T22:28:06.524Z,-2.79
2022-12-28T22:30:38.879Z,-2.87
2022-12-28T22:33:06.778Z,-2.91
2022-12-28T22:35:35.034Z,-2.94
2022-12-28T22:38:02.844Z,-2.97
2022-12-28T22:40:31.073Z,-2.99
2022-12-28T22:42:59.159Z,-3.00
2022-12-28T22:45:27.714Z,-3.02
2022-12-28T22:47:58.206Z,-3.03
2022-12-28T22:50:28.447Z,-3.00
2022-12-28T22:52:57.846Z,-3.00
2022-12-28T22:55:25.822Z,-2.98
2022-12-28T22:57:53.689Z,-2.99
2022-12-28T23:00:21.687Z,-2.97
2022-12-28T23:02:49.887Z,-2.97
2022-12-28T23:05:17.741Z,-2.96
2022-12-28T23:07:45.486Z,-2.96
2022-12-28T23:10:13.269Z,-2.96
2022-12-28T23:12:41.127Z,-2.96
2022-12-28T23:15:19.122Z,-2.97
2022-12-28T23:17:48.571Z,-2.97
2022-12-28T23:20:35.862Z,-2.99
2022-12-28T23:23:22.445Z,-2.99
2022-12-28T23:26:08.669Z,-3.02
2022-12-28T23:28:37.071Z,-3.03
2022-12-28T23:31:06.226Z,-3.04
2022-12-28T23:33:36.032Z,-3.04
2022-12-28T23:36:05.263Z,-3.07
2022-12-28T23:38:33.731Z,-3.07
2022-12-28T23:41:25.394Z,-3.07
2022-12-28T23:43:53.112Z,-3.07
2022-12-28T23:46:21.015Z,-3.08
2022-12-28T23:48:48.871Z,-3.11
2022-12-28T23:51:17.483Z,-3.12
2022-12-28T23:53:45.471Z,-3.11
2022-12-28T23:56:13.398Z,-3.18
2022-12-28T23:58:40.868Z,-3.11
